Flight Track Log - Related Links

Times and Time Zones

All times are in EDT time to prevent confusion due to time zone crossing. See the KAP5 flight status page for this flight to view local times or setup timezone preferences in your user account.

Time Position Orientation Groundspeed Altitude Reporting Facility
EDT Latitude Longitude Course Direction KTS MPH feet Rate Location/Type
Sun 02:47:11 PM 42.7156 -73.7794 134° Southeast 100 115 1,500  Level Boston Center
Sun 02:48:12 PM 42.6931 -73.7481 134° Southeast 118 136 2,400 843 Climbing Boston Center
Sun 02:49:12 PM 42.6872 -73.7083 101° East 140 161 3,200 793 Climbing Boston Center
Sun 02:50:13 PM 42.7003 -73.6606 70° East 142 163 4,000 885 Climbing Boston Center
Sun 02:51:14 PM 42.7111 -73.6128 73° East 137 158 5,000 934 Climbing Boston Center
Sun 02:52:15 PM 42.7306 -73.5594 64° Northeast 143 165 5,900 744 Climbing Boston Center
Sun 02:53:15 PM 42.7456 -73.5058 69° East 146 168 6,500 545 Climbing Boston Center
Sun 02:54:16 PM 42.7544 -73.4553 77° East 137 158 7,000 541 Climbing Boston Center
Sun 02:55:17 PM 42.7694 -73.4075 67° East 135 155 7,600 600 Climbing Boston Center
Sun 02:56:06 PM 42.7781 -73.3678 74° East 143 165 8,100 550 Climbing Boston Center
Sun 02:57:06 PM 42.7700 -73.3253 104° East 140 161 8,600 450 Climbing Boston Center
Sun 02:58:06 PM 42.7600 -73.2686 103° East 140 161 9,000 200 Climbing Boston Center
Sun 02:59:06 PM 42.7500 -73.2147 104° East 155 178 9,000  Level Boston Center
Sun 03:00:06 PM 42.7442 -73.1611 98° East 169 194 9,000  Level Boston Center
Sun 03:01:06 PM 42.7300 -73.0789 103° East 185 213 9,000  Level Boston Center
Sun 03:02:06 PM 42.7219 -73.0250 101° East 185 213 9,000  Level Boston Center
Sun 03:03:06 PM 42.7119 -72.9600 102° East 180 207 9,000  Level Boston Center
Sun 03:04:18 PM 42.6975 -72.8694 102° East 180 207 9,000  Level Boston Center
Sun 03:05:18 PM 42.6853 -72.8044 104° East 180 207 9,000  Level Boston Center
Sun 03:06:18 PM 42.6731 -72.7367 104° East 180 207 9,000  Level Boston Center
Sun 03:07:18 PM 42.6731 -72.6689 90° East 180 207 9,000  Level Boston Center
Sun 03:08:18 PM 42.6650 -72.6039 100° East 180 207 9,000  Level Boston Center
Sun 03:09:18 PM 42.6589 -72.5389 97° East 180 207 9,000  Level Boston Center
Sun 03:10:18 PM 42.6464 -72.4739 105° East 180 207 9,000  Level Boston Center
Sun 03:11:18 PM 42.6317 -72.4033 106° East 180 207 9,000  Level Boston Center
Sun 03:12:18 PM 42.6150 -72.3386 109° East 185 213 9,000  Level Boston Center
Sun 03:13:18 PM 42.5983 -72.2681 108° East 185 213 9,000  Level Boston Center
Sun 03:14:18 PM 42.5794 -72.1919 109° East 190 219 9,000  Level Boston Center
Sun 03:15:18 PM 42.5625 -72.1356 112° Southeast 190 219 9,000  Level Boston Center
Sun 03:16:18 PM 42.5497 -72.0567 102° East 190 219 9,000  Level Boston Center
Sun 03:17:18 PM 42.5414 -71.9950 100° East 185 213 9,000  Level Boston Center
Sun 03:18:18 PM 42.5347 -71.9189 97° East 185 213 9,000  Level Boston Center
Sun 03:19:18 PM 42.5303 -71.8542 95° East 185 213 9,000  Level Boston Center
Sun 03:20:18 PM 42.5214 -71.7781 99° East 180 207 9,000  Level Boston Center
Sun 03:21:18 PM 42.5231 -71.7047 88° East 180 207 9,000  Level Boston Center
Sun 03:22:18 PM 42.5308 -71.6372 81° East 180 207 9,000  Level Boston Center
Sun 03:23:18 PM 42.5333 -71.5667 87° East 190 219 9,000 -300 Level KA90
Sun 03:24:18 PM 42.5500 -71.4833 75° East 206 237 8,400 -650 Descending KA90
Sun 03:25:18 PM 42.5500 -71.4000 90° East 213 245 7,700 -700 Descending KA90
Sun 03:26:18 PM 42.5500 -71.3167 90° East 215 247 7,000 -737 Descending KA90
Sun 03:27:12 PM 42.5667 -71.2500 71° East 213 245 6,300 -900 Descending KA90
Sun 03:28:18 PM 42.5667 -71.1667 90° East 215 247 5,200 -905 Descending KA90
Sun 03:29:18 PM 42.5833 -71.0833 75° East 214 246 4,400 -789 Descending KA90
Sun 03:30:12 PM 42.5833 -71.0167 90° East 211 243 3,700 -700 Descending KA90
Sun 03:31:18 PM 42.5500 -70.9500 124° Southeast 179 206 3,000 -524 Descending KA90
Sun 03:32:18 PM 42.5000 -70.9500 180° South 165 190 2,600 -500 Descending KA90
Sun 03:33:18 PM 42.4500 -70.9667 194° South 164 189 2,000 -800 Descending KA90
Sun 03:34:18 PM 42.4167 -70.9833 200° South 155 178 1,000 -900 Descending KA90
Sun 03:35:18 PM 42.3833 -71.0000 200° South 129 148 200 -800 Descending KA90
Sun 03:37:00 PM 42.3630 -71.0064 270° West  Level Estimated

Login

Don't have an account? Register now (free) for customized features, flight alerts, and more!